Airfield :
LOGIN :

Register | Disclaimer

   EN    FR    IT 

 










Legend :    VFR   Marginal VFR   IFR   Intensive IFR   Very Intensive IFR
Visi :
Ceiling :
>= 8 km
>= 3000ft
5 to 8 km
1000 to 3000 ft
1500m to 5 km
500 to 1000 ft
800 to 1500m
200 to 500 ft
< 800m
< 200 ft
Symbols :   Thunderstorms  Fog  Heavy snow  Heavy precipitations  Wind > 20 kt
SIGMETs :     Misc.  Thunderstorms  Icing  Turbulence  Mountain Waves  Volcanic Ashes






- Airport Elevation : 202 ft
- IATA code : LGW


EGKK - London Gatwick

CURRENT METAR :
  • 170050Z 22011KT CAVOK 07/01 Q1007

EXPIRED METARs :
  • 170020Z 23013KT CAVOK 07/01 Q1007
  • 162350Z 23012KT CAVOK 06/01 Q1006
  • 162320Z 24014KT CAVOK 07/01 Q1006
  • 162250Z 24013KT CAVOK 06/01 Q1005

TAF TAF EGKK
Valid from the 17 at 00:00 until the 18 at 06:00 UTC


162259Z 1700/1806 23015KT 9999 FEW025
TEMPO 1700/1703 24018G28KT
TEMPO 1703/1720 8000 SHRA
PROB30
TEMPO 1703/1720 24018G28KT 4000 +SHRA BKN014CB



MET'MAP, your aeronautical weather chart ! - Copyright ORBIFLY December 2007 - Disclaimer

ORBIFLY MET'MAP TEAM :

Programming & Development : Alexandra Zaïnal
Concept & original design : Baudouin d'Aumeries
Assistance for programming : Marc-Olivier Méhu
Technical & hardware support : Manuel Goepfert

Contact : metmap@orbifly.com




SOURCES & CREDITS :

   NOAA